Ana Sayfa
METAR-TAF:

METAR-TAF

Havaalanları :

Coatesville, Pensilvanya, Amerika Birleşik Devletleri

Enlem: 39-58-44N, Boylam: 075-51-56W, yükseklik: 201 m

Güncel hava durumu gözlemi

Rapor saat 14:15 UTC de 17 dakika önce yapıldı.
Rüzgar kuzeybatıdan 7 kt
Sıcaklık 17°C
Nem 59%
Basınç 1020 hPa
Görüş mesafesi: 16.1 km
Açık gökyüzü

METAR: KMQS 241415Z AUTO 31007KT 10SM CLR 17/09 A3011 RMK AO2

Saat: 10:32 (14:32 UTC)


TAF: eksik

4.000'den fazla havaalanı için hava durumu gözlemleri ve tahminleri (METAR ve TAF raporları).

Kullanılabilir istasyonlar harita üzerinde sarı ve kırmızı noktalarla gösterilir.

İstasyonun adını görmek için fareyi noktanın üzerinde gezdirin.

Sonrasında hava gözlem ve tahminlerini görmek için tıklayın.

Haritayı değiştirmek için: yaklaştırmak için siyah artı işaretli yeşil düğmeye ve uzaklaştırmak için de eksi işaretli düğmeye hızla tıklayın; bitişik haritalar için yeşil okları kullanın.


METAR-TAF: